Kings Beach, California
Current Conditions -  °F | °C
As of 5:15 AM on Wednesday 22 Oct 2014 (Local Time) from KTRK Reporting Station
Clear Clear  
Wind Chill: 27°   Ceiling: Unl
Heat Index: 27°   Visibility: 10mi
Dew Point: 25°   Wind: 3mph
Humidity: 93%   Direction: 130°SE
Pressure: 30.17"   Gusts: NA
Location:  39.24°N, 120.03°W
Report Text: KTRK 221215Z AUTO 13003KT 10SM CLR M03/M04 A3017 RMK AO2
Loading
Personal Weather Stations






























Interactive Weather Map
Tropical Storm Tracking
New forecast layout! Learn more

10-Day Weather Forecast

Advertisements
Track Severe Weather on mobile